Time;durP1;ratioP1;P1;durP2;ratioP2;P2;SDS_P1;SDS_P2;PMS_P1;PMS_P2;Temp;Humidity;BMP_temperature;BMP_pressure;BME280_temperature;BME280_humidity;BME280_pressure;Samples;Min_cycle;Max_cycle;Signal;HPM_P1;HPM_P2
2021/05/10 00:01:11;;;;;;;2.83;1.77;;;;;;;;;;10358447;28;20056;-62
2021/05/10 00:06:09;;;;;;;2.42;1.50;;;;;;;;;;10359076;28;20063;-62
2021/05/10 00:11:07;;;;;;;4.47;1.60;;;;;;;;;;10359346;28;20044;-62
2021/05/10 00:16:04;;;;;;;2.03;1.80;;;;;;;;;;10358682;28;20501;-62
2021/05/10 00:21:02;;;;;;;2.95;1.65;;;;;;;;;;10359340;28;20152;-62
2021/05/10 00:26:00;;;;;;;3.17;2.20;;;;;;;;;;10358389;28;20082;-63
2021/05/10 00:30:58;;;;;;;3.00;1.83;;;;;;;;;;10358262;28;20047;-62
2021/05/10 00:35:55;;;;;;;2.05;1.83;;;;;;;;;;10358101;28;20040;-62
2021/05/10 00:40:53;;;;;;;3.03;1.55;;;;;;;;;;10358089;28;20047;-62
2021/05/10 00:45:50;;;;;;;1.63;1.50;;;;;;;;;;10357693;28;20087;-62
2021/05/10 00:50:48;;;;;;;2.88;1.70;;;;;;;;;;10358175;28;20059;-62
2021/05/10 00:55:46;;;;;;;2.45;1.60;;;;;;;;;;10357628;28;20508;-62
2021/05/10 01:00:43;;;;;;;12.70;2.28;;;;;;;;;;10357518;28;20052;-62
2021/05/10 01:05:40;;;;;;;2.00;1.45;;;;;;;;;;10360589;28;20484;-62
2021/05/10 01:10:39;;;;;;;1.80;1.58;;;;;;;;;;10371006;28;20043;-62
2021/05/10 01:15:36;;;;;;;2.90;1.75;;;;;;;;;;10370775;28;20542;-62
2021/05/10 01:20:34;;;;;;;2.83;1.45;;;;;;;;;;10370572;28;20044;-62
2021/05/10 01:25:33;;;;;;;3.08;1.55;;;;;;;;;;10371297;28;20098;-62
2021/05/10 01:30:32;;;;;;;1.60;1.50;;;;;;;;;;10371074;28;20162;-62
2021/05/10 01:35:30;;;;;;;4.13;2.13;;;;;;;;;;10370549;28;20556;-62
2021/05/10 01:40:27;;;;;;;3.45;1.70;;;;;;;;;;10370818;28;20040;-62
2021/05/10 01:45:26;;;;;;;2.72;1.60;;;;;;;;;;10371328;28;20091;-62
2021/05/10 01:50:24;;;;;;;2.95;1.70;;;;;;;;;;10371226;28;20044;-62
2021/05/10 01:55:22;;;;;;;1.80;1.50;;;;;;;;;;10369414;28;20040;-62
2021/05/10 02:00:21;;;;;;;1.60;1.50;;;;;;;;;;10370565;28;20448;-62
2021/05/10 02:05:19;;;;;;;2.17;1.92;;;;;;;;;;10371212;28;20558;-61
2021/05/10 02:10:17;;;;;;;4.40;2.22;;;;;;;;;;10370920;28;20500;-62
2021/05/10 02:15:15;;;;;;;1.75;1.48;;;;;;;;;;10370803;28;20044;-62
2021/05/10 02:20:12;;;;;;;3.08;1.77;;;;;;;;;;10364313;28;20048;-62
2021/05/10 02:25:17;;;;;;;2.35;2.13;;;;;;;;;;10364006;28;20496;-62
2021/05/10 02:30:14;;;;;;;3.97;1.97;;;;;;;;;;10363786;28;20153;-63
2021/05/10 02:35:12;;;;;;;2.78;1.85;;;;;;;;;;10363890;28;20040;-62
2021/05/10 02:40:11;;;;;;;2.35;1.98;;;;;;;;;;10363825;28;20500;-61
2021/05/10 02:45:10;;;;;;;2.47;2.08;;;;;;;;;;10363213;28;20079;-62
2021/05/10 02:50:08;;;;;;;3.92;2.17;;;;;;;;;;10363428;28;20624;-62
2021/05/10 02:55:06;;;;;;;5.18;2.30;;;;;;;;;;10362814;28;20055;-61
2021/05/10 03:00:06;;;;;;;1.83;1.73;;;;;;;;;;10361667;28;20090;-61
2021/05/10 03:05:04;;;;;;;2.28;2.08;;;;;;;;;;10362604;28;20106;-61
2021/05/10 03:10:01;;;;;;;2.50;1.75;;;;;;;;;;10360964;28;20051;-62
2021/05/10 03:14:59;;;;;;;2.00;1.80;;;;;;;;;;10361939;28;20051;-61
2021/05/10 03:19:57;;;;;;;2.78;2.38;;;;;;;;;;10360264;28;20429;-61
2021/05/10 03:24:54;;;;;;;2.88;1.98;;;;;;;;;;10361484;28;20117;-60
2021/05/10 03:29:52;;;;;;;4.50;3.03;;;;;;;;;;10360128;28;20055;-60
2021/05/10 03:34:49;;;;;;;19.73;4.20;;;;;;;;;;10360254;28;20048;-61
2021/05/10 03:39:47;;;;;;;6.65;2.47;;;;;;;;;;10360877;28;20044;-61
2021/05/10 03:44:45;;;;;;;2.45;1.88;;;;;;;;;;10359297;28;20052;-61
2021/05/10 03:49:42;;;;;;;2.95;1.90;;;;;;;;;;10359680;28;20075;-61
2021/05/10 03:54:40;;;;;;;3.25;2.40;;;;;;;;;;10360457;28;20040;-61
2021/05/10 03:59:38;;;;;;;2.10;1.88;;;;;;;;;;10359573;28;20087;-61
2021/05/10 04:04:39;;;;;;;3.72;1.80;;;;;;;;;;10359146;28;20083;-61
2021/05/10 04:09:47;;;;;;;7.53;2.08;;;;;;;;;;10359784;28;20067;-62
2021/05/10 04:15:06;;;;;;;6.78;2.30;;;;;;;;;;10357682;28;20087;-61
2021/05/10 04:20:03;;;;;;;6.60;1.73;;;;;;;;;;10355750;28;20098;-62
2021/05/10 04:25:01;;;;;;;5.07;1.92;;;;;;;;;;10357273;28;20076;-62
2021/05/10 04:29:58;;;;;;;2.33;1.85;;;;;;;;;;10358200;28;20048;-62
2021/05/10 04:34:56;;;;;;;3.90;2.13;;;;;;;;;;10359010;28;20084;-62
2021/05/10 04:39:53;;;;;;;2.40;1.83;;;;;;;;;;10357419;28;20040;-62
2021/05/10 04:44:51;;;;;;;3.65;2.05;;;;;;;;;;10358635;28;20087;-61
2021/05/10 04:49:49;;;;;;;2.95;1.98;;;;;;;;;;10358936;28;20093;-61
2021/05/10 04:54:47;;;;;;;4.38;1.65;;;;;;;;;;10358437;28;20070;-62
2021/05/10 04:59:47;;;;;;;2.17;1.55;;;;;;;;;;10357899;28;20056;-62
2021/05/10 05:04:45;;;;;;;2.42;1.65;;;;;;;;;;10358000;28;20084;-62
2021/05/10 05:09:43;;;;;;;3.92;1.52;;;;;;;;;;10358141;28;20044;-61
2021/05/10 05:14:41;;;;;;;2.30;1.98;;;;;;;;;;10356517;28;20048;-61
2021/05/10 05:19:38;;;;;;;3.33;1.75;;;;;;;;;;10357990;28;20084;-61
2021/05/10 05:24:36;;;;;;;3.53;1.58;;;;;;;;;;10357604;28;20074;-61
2021/05/10 05:29:33;;;;;;;3.00;1.20;;;;;;;;;;10357649;28;20044;-61
2021/05/10 05:34:31;;;;;;;5.07;1.95;;;;;;;;;;10357467;28;20044;-61
2021/05/10 05:39:28;;;;;;;2.25;1.45;;;;;;;;;;10357545;28;20394;-61
2021/05/10 05:44:26;;;;;;;2.40;1.60;;;;;;;;;;10357364;28;20044;-61
2021/05/10 05:49:24;;;;;;;6.95;2.05;;;;;;;;;;10357425;28;20481;-62
2021/05/10 05:54:22;;;;;;;3.75;1.60;;;;;;;;;;10361827;28;20071;-62
2021/05/10 05:59:19;;;;;;;5.90;2.28;;;;;;;;;;10364346;28;20052;-61
2021/05/10 06:04:17;;;;;;;1.67;1.42;;;;;;;;;;10364477;28;20044;-61
2021/05/10 06:09:14;;;;;;;3.38;1.75;;;;;;;;;;10364049;28;20079;-61
2021/05/10 06:14:12;;;;;;;1.98;1.30;;;;;;;;;;10364355;28;20055;-61
2021/05/10 06:19:10;;;;;;;5.30;1.60;;;;;;;;;;10364095;28;20044;-61
2021/05/10 06:24:08;;;;;;;5.05;1.85;;;;;;;;;;10363959;28;20083;-61
2021/05/10 06:29:05;;;;;;;1.63;1.30;;;;;;;;;;10363956;28;20196;-61
2021/05/10 06:34:05;;;;;;;2.10;1.90;;;;;;;;;;10363359;28;20044;-61
2021/05/10 06:39:03;;;;;;;2.42;1.35;;;;;;;;;;10363256;28;20491;-61
2021/05/10 06:44:00;;;;;;;7.65;1.63;;;;;;;;;;10363350;28;20087;-61
2021/05/10 06:48:57;;;;;;;3.53;1.25;;;;;;;;;;10363237;28;20071;-61
2021/05/10 06:53:56;;;;;;;1.67;1.45;;;;;;;;;;10360885;28;20047;-61
2021/05/10 06:58:53;;;;;;;4.00;1.40;;;;;;;;;;10362360;28;20055;-61
2021/05/10 07:03:50;;;;;;;4.07;1.42;;;;;;;;;;10361907;28;20079;-61
2021/05/10 07:08:48;;;;;;;2.40;1.98;;;;;;;;;;10361963;28;20079;-61
2021/05/10 07:13:46;;;;;;;4.05;1.70;;;;;;;;;;10361874;28;20040;-61
2021/05/10 07:18:43;;;;;;;2.28;1.30;;;;;;;;;;10361487;28;20040;-63
2021/05/10 07:23:41;;;;;;;1.60;1.25;;;;;;;;;;10361460;28;20523;-62
2021/05/10 07:28:38;;;;;;;2.67;0.95;;;;;;;;;;10361435;28;20091;-62
2021/05/10 07:33:39;;;;;;;2.25;1.63;;;;;;;;;;10360984;28;20036;-62
2021/05/10 07:38:38;;;;;;;5.63;1.92;;;;;;;;;;10360212;28;20045;-62
2021/05/10 07:43:35;;;;;;;4.28;1.70;;;;;;;;;;10360748;28;20044;-61
2021/05/10 07:48:33;;;;;;;1.30;1.17;;;;;;;;;;10358491;28;20048;-62
2021/05/10 07:53:31;;;;;;;5.95;1.27;;;;;;;;;;10360645;28;20048;-62
2021/05/10 07:58:28;;;;;;;4.47;2.05;;;;;;;;;;10359745;28;20056;-63
2021/05/10 08:03:27;;;;;;;1.52;1.30;;;;;;;;;;10359856;28;20050;-61
2021/05/10 08:08:26;;;;;;;1.95;1.27;;;;;;;;;;10359709;28;20075;-61
2021/05/10 08:13:24;;;;;;;4.30;1.50;;;;;;;;;;10358797;28;20055;-62
2021/05/10 08:18:21;;;;;;;5.20;1.50;;;;;;;;;;10358680;28;20080;-62
2021/05/10 08:23:19;;;;;;;1.58;1.48;;;;;;;;;;10359317;28;20075;-62
2021/05/10 08:28:16;;;;;;;2.47;1.40;;;;;;;;;;10358475;28;20082;-62
2021/05/10 08:33:14;;;;;;;1.40;1.20;;;;;;;;;;10358985;28;20044;-62
2021/05/10 08:38:12;;;;;;;7.93;1.98;;;;;;;;;;10358558;28;20055;-62
2021/05/10 08:43:19;;;;;;;16.65;1.90;;;;;;;;;;10358087;28;20052;-62
2021/05/10 08:48:18;;;;;;;2.30;1.30;;;;;;;;;;10358721;28;20095;-62
2021/05/10 08:53:31;;;;;;;6.75;2.00;;;;;;;;;;10358233;28;20044;-61
2021/05/10 08:58:28;;;;;;;6.75;1.85;;;;;;;;;;10358338;28;20055;-62
2021/05/10 09:03:33;;;;;;;3.20;2.65;;;;;;;;;;10358114;28;20055;-62
2021/05/10 09:08:36;;;;;;;9.15;1.42;;;;;;;;;;10357910;28;20087;-61
2021/05/10 09:13:35;;;;;;;3.95;2.90;;;;;;;;;;10358140;28;20059;-62
2021/05/10 09:18:33;;;;;;;1.83;1.50;;;;;;;;;;10357730;28;20047;-62
2021/05/10 09:23:30;;;;;;;7.63;2.33;;;;;;;;;;10357842;28;20059;-62
2021/05/10 09:28:28;;;;;;;3.83;1.75;;;;;;;;;;10362478;28;20075;-62
2021/05/10 09:33:27;;;;;;;4.22;1.20;;;;;;;;;;10365939;28;20098;-62
2021/05/10 09:38:26;;;;;;;2.90;1.45;;;;;;;;;;10365566;28;20036;-62
2021/05/10 09:43:24;;;;;;;4.38;1.55;;;;;;;;;;10365547;28;20090;-62
2021/05/10 09:48:26;;;;;;;3.15;2.20;;;;;;;;;;10365321;28;20080;-62
2021/05/10 09:53:34;;;;;;;3.28;1.63;;;;;;;;;;10365027;28;20441;-62
2021/05/10 09:58:39;;;;;;;3.92;2.33;;;;;;;;;;10364400;28;20321;-61
2021/05/10 10:03:40;;;;;;;4.75;1.67;;;;;;;;;;10364603;28;20075;-61
2021/05/10 10:08:39;;;;;;;1.95;1.55;;;;;;;;;;10364495;28;20071;-61
2021/05/10 10:13:37;;;;;;;8.75;3.17;;;;;;;;;;10362505;28;20044;-61
2021/05/10 10:18:36;;;;;;;3.55;1.95;;;;;;;;;;10363771;28;20044;-62
2021/05/10 10:23:34;;;;;;;7.05;1.67;;;;;;;;;;10363758;28;20047;-62
2021/05/10 10:28:33;;;;;;;4.35;1.70;;;;;;;;;;10363540;28;20079;-62
2021/05/10 10:33:34;;;;;;;5.82;1.50;;;;;;;;;;10360911;28;20056;-62
2021/05/10 10:38:32;;;;;;;3.75;1.55;;;;;;;;;;10362901;28;20056;-62
2021/05/10 10:43:31;;;;;;;2.03;1.63;;;;;;;;;;10362976;28;20414;-61
2021/05/10 10:48:31;;;;;;;4.63;1.65;;;;;;;;;;10362836;28;20048;-62
2021/05/10 10:53:40;;;;;;;7.10;1.52;;;;;;;;;;10362242;28;20497;-62
2021/05/10 10:58:40;;;;;;;5.43;2.28;;;;;;;;;;10362340;28;20052;-62
2021/05/10 11:03:39;;;;;;;3.13;1.80;;;;;;;;;;10362359;28;20071;-63
2021/05/10 11:08:47;;;;;;;1.50;1.40;;;;;;;;;;10362309;28;20520;-62
2021/05/10 11:13:44;;;;;;;5.30;1.92;;;;;;;;;;10361280;28;20064;-62
2021/05/10 11:18:47;;;;;;;2.20;1.40;;;;;;;;;;10361635;28;20044;-62
2021/05/10 11:23:49;;;;;;;2.05;1.63;;;;;;;;;;10360931;28;20071;-62
2021/05/10 11:28:46;;;;;;;3.40;1.95;;;;;;;;;;10359786;28;20529;-62
2021/05/10 11:34:04;;;;;;;2.80;1.40;;;;;;;;;;10361252;28;20040;-63
2021/05/10 11:39:03;;;;;;;2.28;1.70;;;;;;;;;;10360940;28;20044;-63
2021/05/10 11:44:02;;;;;;;3.92;1.67;;;;;;;;;;10360945;28;20081;-62
2021/05/10 11:48:59;;;;;;;4.22;1.40;;;;;;;;;;10360230;28;20084;-62
2021/05/10 11:53:59;;;;;;;6.40;2.15;;;;;;;;;;10359037;28;20072;-63
2021/05/10 11:59:06;;;;;;;5.82;3.78;;;;;;;;;;10359521;28;20063;-63
2021/05/10 12:04:15;;;;;;;2.15;1.83;;;;;;;;;;10360226;28;20552;-61
2021/05/10 12:09:31;;;;;;;3.47;1.40;;;;;;;;;;10359656;28;20075;-61
2021/05/10 12:14:29;;;;;;;4.15;1.67;;;;;;;;;;10359754;28;20048;-62
2021/05/10 12:19:47;;;;;;;2.90;1.10;;;;;;;;;;10359523;28;20036;-62
2021/05/10 12:24:54;;;;;;;3.38;1.30;;;;;;;;;;10359915;28;20059;-61
2021/05/10 12:29:52;;;;;;;1.30;1.00;;;;;;;;;;10359134;28;20087;-61
2021/05/10 12:34:50;;;;;;;4.13;1.55;;;;;;;;;;10358994;28;20055;-62
2021/05/10 12:39:47;;;;;;;4.93;1.55;;;;;;;;;;10359143;28;20080;-62
2021/05/10 12:44:58;;;;;;;5.57;1.45;;;;;;;;;;10358771;28;20285;-62
2021/05/10 12:49:56;;;;;;;1.60;1.30;;;;;;;;;;10358515;28;20473;-62
2021/05/10 12:54:56;;;;;;;2.72;1.27;;;;;;;;;;10358488;28;20043;-62
2021/05/10 12:59:53;;;;;;;1.23;1.13;;;;;;;;;;10357979;28;20555;-62
2021/05/10 13:04:51;;;;;;;5.45;1.63;;;;;;;;;;10358060;28;20043;-62
2021/05/10 13:09:49;;;;;;;2.38;1.40;;;;;;;;;;10358088;28;20048;-62
2021/05/10 13:14:50;;;;;;;3.03;2.40;;;;;;;;;;10357997;28;20067;-63
2021/05/10 13:20:04;;;;;;;4.45;1.80;;;;;;;;;;10358082;28;20412;-61
2021/05/10 13:35:56;;;;;;;2.15;1.58;;;;;;;;;;10356766;28;20527;-62
2021/05/10 13:40:53;;;;;;;1.70;1.60;;;;;;;;;;10357120;28;20539;-62
2021/05/10 13:45:50;;;;;;;1.63;1.40;;;;;;;;;;10356883;28;20044;-62
2021/05/10 13:50:48;;;;;;;2.75;1.80;;;;;;;;;;10356136;28;20067;-62
2021/05/10 13:55:46;;;;;;;4.70;2.25;;;;;;;;;;10356111;28;20047;-62
2021/05/10 14:00:44;;;;;;;7.32;2.33;;;;;;;;;;10356638;28;20421;-62
2021/05/10 14:05:41;;;;;;;4.03;1.48;;;;;;;;;;10356132;28;20081;-62
2021/05/10 14:10:41;;;;;;;2.15;1.35;;;;;;;;;;10356793;28;20090;-62
2021/05/10 14:15:40;;;;;;;3.65;3.00;;;;;;;;;;10361246;28;20055;-63
2021/05/10 14:25:49;;;;;;;4.95;2.72;;;;;;;;;;10363081;28;20058;-62
2021/05/10 14:30:47;;;;;;;7.50;1.83;;;;;;;;;;10344209;28;20089;-61
2021/05/10 14:35:45;;;;;;;2.50;1.65;;;;;;;;;;10287790;28;20079;-61
2021/05/10 14:40:42;;;;;;;3.10;1.98;;;;;;;;;;10297284;28;20105;-62
2021/05/10 14:45:40;;;;;;;5.55;1.42;;;;;;;;;;10279332;28;20053;-62
2021/05/10 14:50:38;;;;;;;3.15;2.00;;;;;;;;;;10280247;28;20076;-63
2021/05/10 14:55:35;;;;;;;4.85;1.98;;;;;;;;;;10280560;28;20056;-62
2021/05/10 15:00:33;;;;;;;5.03;2.42;;;;;;;;;;10280196;28;20049;-62
2021/05/10 15:05:30;;;;;;;5.45;2.33;;;;;;;;;;10280122;28;20052;-62
2021/05/10 15:10:28;;;;;;;7.50;4.43;;;;;;;;;;10279120;28;20136;-62
2021/05/10 15:15:26;;;;;;;3.45;2.55;;;;;;;;;;10280397;28;20409;-62
2021/05/10 15:20:23;;;;;;;6.85;4.70;;;;;;;;;;10279999;28;20513;-62
2021/05/10 15:25:21;;;;;;;8.27;4.85;;;;;;;;;;10279459;28;20410;-62
2021/05/10 15:30:20;;;;;;;4.03;2.65;;;;;;;;;;10279912;28;20096;-62
2021/05/10 15:35:18;;;;;;;11.18;6.90;;;;;;;;;;10279774;28;20049;-62
2021/05/10 15:40:16;;;;;;;7.45;2.50;;;;;;;;;;10279345;28;20056;-62
2021/05/10 15:45:15;;;;;;;10.20;7.15;;;;;;;;;;10278647;28;20041;-61
2021/05/10 15:50:15;;;;;;;9.32;6.50;;;;;;;;;;10278980;28;20084;-64
2021/05/10 15:55:12;;;;;;;3.13;2.78;;;;;;;;;;10280945;28;20040;-62
2021/05/10 16:00:10;;;;;;;9.93;4.80;;;;;;;;;;10298586;28;20079;-62
2021/05/10 16:05:09;;;;;;;3.50;1.23;;;;;;;;;;10296949;28;20052;-62
2021/05/10 16:10:08;;;;;;;22.35;20.02;;;;;;;;;;10294733;28;20073;-62
2021/05/10 16:15:06;;;;;;;8.65;7.28;;;;;;;;;;10295227;28;20083;-62
2021/05/10 16:20:04;;;;;;;6.28;3.97;;;;;;;;;;10297964;28;20505;-62
2021/05/10 16:25:01;;;;;;;7.40;5.50;;;;;;;;;;10296267;28;20040;-62
2021/05/10 16:30:00;;;;;;;7.47;4.22;;;;;;;;;;10291783;28;20087;-62
2021/05/10 16:34:57;;;;;;;7.30;3.75;;;;;;;;;;10306007;28;20064;-61
2021/05/10 16:39:55;;;;;;;13.98;5.50;;;;;;;;;;10315381;28;20076;-63
2021/05/10 16:44:52;;;;;;;4.30;1.70;;;;;;;;;;10316832;28;20082;-62
2021/05/10 16:49:50;;;;;;;4.70;1.80;;;;;;;;;;10315521;28;20064;-62
2021/05/10 16:54:47;;;;;;;7.50;2.55;;;;;;;;;;10316876;28;20064;-62
2021/05/10 16:59:45;;;;;;;5.22;1.65;;;;;;;;;;10316792;28;20059;-62
2021/05/10 17:04:42;;;;;;;14.25;3.08;;;;;;;;;;10317274;28;20048;-62
2021/05/10 17:09:43;;;;;;;5.25;1.60;;;;;;;;;;10313066;28;20588;-60
2021/05/10 17:14:44;;;;;;;3.50;1.65;;;;;;;;;;10300099;28;20071;-61
2021/05/10 17:19:42;;;;;;;2.22;1.20;;;;;;;;;;10286049;28;20106;-61
2021/05/10 17:24:39;;;;;;;4.47;1.52;;;;;;;;;;10283185;28;20551;-62
2021/05/10 17:29:37;;;;;;;4.85;2.10;;;;;;;;;;10284127;28;20076;-63
2021/05/10 17:34:37;;;;;;;3.17;1.23;;;;;;;;;;10297979;28;20099;-63
2021/05/10 17:39:37;;;;;;;3.53;1.60;;;;;;;;;;10298763;28;20076;-61
2021/05/10 17:44:34;;;;;;;4.10;1.77;;;;;;;;;;10313485;28;20079;-62
2021/05/10 17:49:36;;;;;;;4.80;1.42;;;;;;;;;;10290411;28;20068;-62
2021/05/10 17:54:33;;;;;;;5.00;1.63;;;;;;;;;;10293991;28;20065;-62
2021/05/10 17:59:32;;;;;;;7.43;1.40;;;;;;;;;;10320802;28;20087;-62
2021/05/10 18:04:29;;;;;;;3.08;1.88;;;;;;;;;;10322708;28;20045;-62
2021/05/10 18:09:28;;;;;;;1.48;1.10;;;;;;;;;;10294367;28;20528;-62
2021/05/10 18:14:31;;;;;;;6.05;1.40;;;;;;;;;;10285825;28;20049;-62
2021/05/10 18:19:28;;;;;;;2.92;1.65;;;;;;;;;;10318531;28;20044;-62
2021/05/10 18:24:26;;;;;;;2.03;1.50;;;;;;;;;;10318321;28;20041;-61
2021/05/10 18:29:24;;;;;;;2.60;1.42;;;;;;;;;;10300684;28;20080;-61
2021/05/10 18:34:23;;;;;;;2.78;1.23;;;;;;;;;;10308711;28;20468;-60
2021/05/10 18:39:24;;;;;;;1.67;1.58;;;;;;;;;;10303167;28;20087;-62
2021/05/10 18:44:22;;;;;;;6.90;1.30;;;;;;;;;;10293726;28;20080;-60
2021/05/10 18:49:33;;;;;;;2.35;1.38;;;;;;;;;;10294544;28;20079;-61
2021/05/10 18:54:31;;;;;;;5.38;2.67;;;;;;;;;;10291200;28;20064;-61
2021/05/10 18:59:28;;;;;;;8.13;5.93;;;;;;;;;;10278896;28;20057;-61
2021/05/10 19:04:26;;;;;;;6.90;4.45;;;;;;;;;;10282785;28;20067;-61
2021/05/10 19:09:27;;;;;;;4.43;2.50;;;;;;;;;;10297314;28;20060;-62
2021/05/10 19:14:25;;;;;;;2.55;1.65;;;;;;;;;;10303686;28;20472;-62
2021/05/10 19:19:24;;;;;;;4.07;2.10;;;;;;;;;;10308981;28;20071;-62
2021/05/10 19:24:22;;;;;;;2.63;1.98;;;;;;;;;;10297289;28;20037;-61
2021/05/10 19:29:20;;;;;;;2.15;1.10;;;;;;;;;;10295351;28;20072;-62
2021/05/10 19:34:17;;;;;;;1.70;1.10;;;;;;;;;;10288586;28;20060;-61
2021/05/10 19:39:15;;;;;;;5.50;1.40;;;;;;;;;;10284122;28;20064;-62
2021/05/10 19:44:12;;;;;;;6.57;1.02;;;;;;;;;;10293689;28;20045;-61
2021/05/10 19:49:14;;;;;;;4.78;3.03;;;;;;;;;;10298346;28;20075;-61
2021/05/10 19:59:34;;;;;;;2.75;1.10;;;;;;;;;;10301247;28;20049;-62
2021/05/10 20:04:32;;;;;;;4.15;0.95;;;;;;;;;;10292392;28;20155;-62
2021/05/10 20:09:30;;;;;;;1.70;1.25;;;;;;;;;;10285054;28;20528;-61
2021/05/10 20:14:27;;;;;;;2.00;1.45;;;;;;;;;;10281042;28;20072;-61
2021/05/10 20:19:24;;;;;;;3.13;1.70;;;;;;;;;;10298363;28;20071;-62
2021/05/10 20:24:23;;;;;;;3.10;1.30;;;;;;;;;;10316964;28;20102;-61
2021/05/10 20:29:21;;;;;;;1.70;1.17;;;;;;;;;;10317717;28;20106;-61
2021/05/10 20:34:19;;;;;;;1.20;1.10;;;;;;;;;;10317752;28;20036;-62
2021/05/10 20:39:16;;;;;;;1.70;0.90;;;;;;;;;;10317460;28;20048;-61
2021/05/10 20:44:14;;;;;;;1.42;1.13;;;;;;;;;;10317604;28;20048;-62
2021/05/10 20:49:12;;;;;;;1.23;1.13;;;;;;;;;;10317013;28;20077;-61
2021/05/10 20:54:10;;;;;;;2.05;1.60;;;;;;;;;;10317317;28;20487;-62
2021/05/10 20:59:08;;;;;;;1.27;1.00;;;;;;;;;;10316533;28;20057;-62
2021/05/10 21:04:06;;;;;;;3.60;1.33;;;;;;;;;;10315626;28;20040;-63
2021/05/10 21:09:04;;;;;;;1.88;1.20;;;;;;;;;;10316812;28;20080;-62
2021/05/10 21:14:02;;;;;;;1.95;1.27;;;;;;;;;;10316745;28;20186;-61
2021/05/10 21:18:59;;;;;;;1.55;1.20;;;;;;;;;;10316556;28;20068;-62
2021/05/10 21:23:57;;;;;;;1.73;1.20;;;;;;;;;;10320725;28;20481;-62
2021/05/10 21:28:55;;;;;;;1.42;1.20;;;;;;;;;;10324815;28;20528;-62
2021/05/10 21:33:52;;;;;;;1.80;0.93;;;;;;;;;;10324751;28;20040;-61
2021/05/10 21:38:55;;;;;;;1.67;1.20;;;;;;;;;;10324686;28;20065;-61
2021/05/10 21:44:05;;;;;;;1.52;1.10;;;;;;;;;;10324363;28;20048;-61
2021/05/10 21:49:04;;;;;;;1.83;1.73;;;;;;;;;;10323885;28;20500;-62
2021/05/10 21:54:02;;;;;;;1.67;1.20;;;;;;;;;;10323775;28;20083;-61
2021/05/10 21:58:59;;;;;;;2.78;1.15;;;;;;;;;;10321890;28;20052;-62
2021/05/10 22:03:58;;;;;;;1.15;1.00;;;;;;;;;;10323638;28;20521;-62
2021/05/10 22:08:57;;;;;;;4.90;1.25;;;;;;;;;;10323623;28;20083;-61
2021/05/10 22:13:54;;;;;;;1.58;1.20;;;;;;;;;;10323432;28;20469;-61
2021/05/10 22:18:52;;;;;;;2.75;1.45;;;;;;;;;;10321939;28;20052;-61
2021/05/10 22:23:53;;;;;;;1.67;1.15;;;;;;;;;;10322711;28;20401;-61
2021/05/10 22:28:51;;;;;;;10.15;1.75;;;;;;;;;;10322516;28;20072;-61
2021/05/10 22:33:48;;;;;;;2.17;1.30;;;;;;;;;;10320649;28;20421;-61
2021/05/10 22:38:51;;;;;;;2.45;1.48;;;;;;;;;;10322392;28;20045;-61
2021/05/10 22:44:10;;;;;;;2.83;1.92;;;;;;;;;;10322026;28;20052;-61
2021/05/10 23:05:04;;;;;;;2.83;1.42;;;;;;;;;;10320561;28;20052;-60
2021/05/10 23:20:39;;;;;;;1.60;1.48;;;;;;;;;;10300399;28;20495;-61
2021/05/10 23:25:37;;;;;;;2.72;1.27;;;;;;;;;;10319546;28;20047;-61
2021/05/10 23:30:36;;;;;;;1.00;1.00;;;;;;;;;;10319102;28;20068;-61
2021/05/10 23:35:33;;;;;;;1.65;1.33;;;;;;;;;;10319104;28;20077;-61
2021/05/10 23:40:30;;;;;;;1.85;1.30;;;;;;;;;;10318980;28;20048;-61
2021/05/10 23:45:28;;;;;;;2.00;1.45;;;;;;;;;;10320131;28;20089;-61
2021/05/10 23:50:26;;;;;;;2.70;1.50;;;;;;;;;;10319708;28;20072;-61
2021/05/10 23:55:28;;;;;;;2.00;1.48;;;;;;;;;;10316942;28;20076;-61
